sensor_id;sensor_type;location;lat;lon;timestamp;P1;durP1;ratioP1;P2;durP2;ratioP2
44981;SDS011;30716;41.740;-70.400;2022-07-01T00:01:59;0.80;;;0.40;;
44981;SDS011;30716;41.740;-70.400;2022-07-01T00:04:25;0.60;;;0.50;;
44981;SDS011;30716;41.740;-70.400;2022-07-01T00:06:55;0.95;;;0.80;;
44981;SDS011;30716;41.740;-70.400;2022-07-01T00:09:22;0.50;;;0.30;;
44981;SDS011;30716;41.740;-70.400;2022-07-01T00:11:48;1.17;;;0.40;;
44981;SDS011;30716;41.740;-70.400;2022-07-01T00:14:15;1.17;;;0.60;;
44981;SDS011;30716;41.740;-70.400;2022-07-01T00:16:41;0.45;;;0.45;;
44981;SDS011;30716;41.740;-70.400;2022-07-01T00:19:08;0.80;;;0.50;;
44981;SDS011;30716;41.740;-70.400;2022-07-01T00:21:34;0.75;;;0.45;;
44981;SDS011;30716;41.740;-70.400;2022-07-01T00:24:00;0.57;;;0.45;;
44981;SDS011;30716;41.740;-70.400;2022-07-01T00:26:27;0.82;;;0.55;;
44981;SDS011;30716;41.740;-70.400;2022-07-01T00:28:53;0.50;;;0.40;;
44981;SDS011;30716;41.740;-70.400;2022-07-01T00:31:19;1.35;;;0.45;;
44981;SDS011;30716;41.740;-70.400;2022-07-01T00:33:45;1.15;;;0.68;;
44981;SDS011;30716;41.740;-70.400;2022-07-01T00:36:11;0.93;;;0.52;;
44981;SDS011;30716;41.740;-70.400;2022-07-01T00:38:37;1.75;;;0.52;;
44981;SDS011;30716;41.740;-70.400;2022-07-01T00:41:03;0.47;;;0.40;;
44981;SDS011;30716;41.740;-70.400;2022-07-01T00:43:34;1.00;;;0.50;;
44981;SDS011;30716;41.740;-70.400;2022-07-01T00:46:01;0.73;;;0.47;;
44981;SDS011;30716;41.740;-70.400;2022-07-01T00:48:27;0.90;;;0.47;;
44981;SDS011;30716;41.740;-70.400;2022-07-01T00:50:54;1.25;;;0.65;;
44981;SDS011;30716;41.740;-70.400;2022-07-01T00:53:20;0.77;;;0.40;;
44981;SDS011;30716;41.740;-70.400;2022-07-01T00:55:46;0.88;;;0.65;;
44981;SDS011;30716;41.740;-70.400;2022-07-01T00:58:12;0.55;;;0.40;;
44981;SDS011;30716;41.740;-70.400;2022-07-01T01:00:38;1.30;;;0.40;;
44981;SDS011;30716;41.740;-70.400;2022-07-01T01:03:05;1.20;;;0.82;;
44981;SDS011;30716;41.740;-70.400;2022-07-01T01:05:33;0.90;;;0.47;;
44981;SDS011;30716;41.740;-70.400;2022-07-01T01:07:59;0.77;;;0.50;;
44981;SDS011;30716;41.740;-70.400;2022-07-01T01:10:26;1.00;;;0.55;;
44981;SDS011;30716;41.740;-70.400;2022-07-01T01:12:53;0.60;;;0.40;;
44981;SDS011;30716;41.740;-70.400;2022-07-01T01:15:21;1.10;;;0.70;;
44981;SDS011;30716;41.740;-70.400;2022-07-01T01:17:47;1.83;;;0.50;;
44981;SDS011;30716;41.740;-70.400;2022-07-01T01:20:14;0.70;;;0.57;;
44981;SDS011;30716;41.740;-70.400;2022-07-01T01:22:42;0.68;;;0.50;;
44981;SDS011;30716;41.740;-70.400;2022-07-01T01:25:09;1.10;;;0.65;;
44981;SDS011;30716;41.740;-70.400;2022-07-01T01:27:35;1.00;;;0.60;;
44981;SDS011;30716;41.740;-70.400;2022-07-01T01:30:03;1.15;;;0.60;;
44981;SDS011;30716;41.740;-70.400;2022-07-01T01:32:30;0.70;;;0.60;;
44981;SDS011;30716;41.740;-70.400;2022-07-01T01:34:56;0.90;;;0.77;;
44981;SDS011;30716;41.740;-70.400;2022-07-01T01:37:22;0.60;;;0.55;;
44981;SDS011;30716;41.740;-70.400;2022-07-01T01:39:48;0.85;;;0.60;;
44981;SDS011;30716;41.740;-70.400;2022-07-01T01:42:15;0.98;;;0.63;;
44981;SDS011;30716;41.740;-70.400;2022-07-01T01:44:41;1.50;;;0.70;;
44981;SDS011;30716;41.740;-70.400;2022-07-01T01:47:07;0.88;;;0.50;;
44981;SDS011;30716;41.740;-70.400;2022-07-01T01:49:33;0.75;;;0.40;;
44981;SDS011;30716;41.740;-70.400;2022-07-01T01:51:59;1.05;;;0.60;;
44981;SDS011;30716;41.740;-70.400;2022-07-01T01:54:26;0.88;;;0.60;;
44981;SDS011;30716;41.740;-70.400;2022-07-01T01:56:52;1.15;;;0.60;;
44981;SDS011;30716;41.740;-70.400;2022-07-01T01:59:18;0.57;;;0.40;;
44981;SDS011;30716;41.740;-70.400;2022-07-01T02:01:44;0.75;;;0.47;;
44981;SDS011;30716;41.740;-70.400;2022-07-01T02:04:11;0.60;;;0.40;;
44981;SDS011;30716;41.740;-70.400;2022-07-01T02:06:37;0.85;;;0.57;;
44981;SDS011;30716;41.740;-70.400;2022-07-01T02:09:06;0.98;;;0.60;;
44981;SDS011;30716;41.740;-70.400;2022-07-01T02:11:34;0.70;;;0.50;;
44981;SDS011;30716;41.740;-70.400;2022-07-01T02:14:00;0.65;;;0.45;;
44981;SDS011;30716;41.740;-70.400;2022-07-01T02:16:29;1.23;;;0.80;;
44981;SDS011;30716;41.740;-70.400;2022-07-01T02:18:56;0.77;;;0.60;;
44981;SDS011;30716;41.740;-70.400;2022-07-01T02:21:22;1.00;;;0.68;;
44981;SDS011;30716;41.740;-70.400;2022-07-01T02:23:48;0.60;;;0.47;;
44981;SDS011;30716;41.740;-70.400;2022-07-01T02:26:17;0.90;;;0.60;;
44981;SDS011;30716;41.740;-70.400;2022-07-01T02:28:44;1.05;;;0.80;;
44981;SDS011;30716;41.740;-70.400;2022-07-01T02:31:10;1.10;;;0.60;;
44981;SDS011;30716;41.740;-70.400;2022-07-01T02:33:36;1.00;;;0.70;;
44981;SDS011;30716;41.740;-70.400;2022-07-01T02:36:02;1.05;;;0.68;;
44981;SDS011;30716;41.740;-70.400;2022-07-01T02:38:29;1.30;;;0.77;;
44981;SDS011;30716;41.740;-70.400;2022-07-01T02:40:55;1.33;;;0.80;;
44981;SDS011;30716;41.740;-70.400;2022-07-01T02:43:21;1.50;;;0.70;;
44981;SDS011;30716;41.740;-70.400;2022-07-01T02:45:47;0.75;;;0.60;;
44981;SDS011;30716;41.740;-70.400;2022-07-01T02:48:13;1.23;;;0.60;;
44981;SDS011;30716;41.740;-70.400;2022-07-01T02:50:39;0.63;;;0.50;;
44981;SDS011;30716;41.740;-70.400;2022-07-01T02:53:06;1.50;;;0.80;;
44981;SDS011;30716;41.740;-70.400;2022-07-01T02:55:32;1.10;;;0.65;;
44981;SDS011;30716;41.740;-70.400;2022-07-01T02:57:58;1.27;;;0.80;;
44981;SDS011;30716;41.740;-70.400;2022-07-01T03:00:24;0.57;;;0.45;;
44981;SDS011;30716;41.740;-70.400;2022-07-01T03:02:51;1.00;;;0.52;;
44981;SDS011;30716;41.740;-70.400;2022-07-01T03:05:17;2.05;;;0.65;;
44981;SDS011;30716;41.740;-70.400;2022-07-01T03:07:43;1.75;;;0.82;;
44981;SDS011;30716;41.740;-70.400;2022-07-01T03:10:09;1.00;;;0.60;;
44981;SDS011;30716;41.740;-70.400;2022-07-01T03:12:36;5.15;;;0.88;;
44981;SDS011;30716;41.740;-70.400;2022-07-01T03:17:32;1.42;;;0.70;;
44981;SDS011;30716;41.740;-70.400;2022-07-01T03:20:00;1.45;;;0.60;;
44981;SDS011;30716;41.740;-70.400;2022-07-01T03:22:27;1.10;;;0.65;;
44981;SDS011;30716;41.740;-70.400;2022-07-01T03:24:55;1.50;;;0.70;;
44981;SDS011;30716;41.740;-70.400;2022-07-01T03:27:22;0.88;;;0.60;;
44981;SDS011;30716;41.740;-70.400;2022-07-01T03:29:48;0.90;;;0.80;;
44981;SDS011;30716;41.740;-70.400;2022-07-01T03:32:15;1.00;;;0.60;;
44981;SDS011;30716;41.740;-70.400;2022-07-01T03:34:42;0.70;;;0.60;;
44981;SDS011;30716;41.740;-70.400;2022-07-01T03:37:11;0.90;;;0.60;;
44981;SDS011;30716;41.740;-70.400;2022-07-01T03:39:38;0.73;;;0.50;;
44981;SDS011;30716;41.740;-70.400;2022-07-01T03:42:05;1.08;;;0.63;;
44981;SDS011;30716;41.740;-70.400;2022-07-01T03:44:33;0.85;;;0.60;;
44981;SDS011;30716;41.740;-70.400;2022-07-01T03:46:59;1.38;;;0.60;;
44981;SDS011;30716;41.740;-70.400;2022-07-01T03:49:26;1.10;;;0.70;;
44981;SDS011;30716;41.740;-70.400;2022-07-01T03:51:52;1.27;;;0.65;;
44981;SDS011;30716;41.740;-70.400;2022-07-01T03:54:19;0.85;;;0.60;;
44981;SDS011;30716;41.740;-70.400;2022-07-01T03:57:07;1.20;;;0.68;;
44981;SDS011;30716;41.740;-70.400;2022-07-01T03:59:35;1.35;;;0.77;;
44981;SDS011;30716;41.740;-70.400;2022-07-01T04:02:05;1.15;;;0.60;;
44981;SDS011;30716;41.740;-70.400;2022-07-01T04:04:32;0.98;;;0.60;;
44981;SDS011;30716;41.740;-70.400;2022-07-01T04:06:59;1.77;;;0.60;;
44981;SDS011;30716;41.740;-70.400;2022-07-01T04:09:28;0.98;;;0.50;;
44981;SDS011;30716;41.740;-70.400;2022-07-01T04:11:54;0.95;;;0.60;;
44981;SDS011;30716;41.740;-70.400;2022-07-01T04:14:21;1.02;;;0.70;;
44981;SDS011;30716;41.740;-70.400;2022-07-01T04:16:49;1.75;;;0.60;;
44981;SDS011;30716;41.740;-70.400;2022-07-01T04:19:17;1.90;;;0.77;;
44981;SDS011;30716;41.740;-70.400;2022-07-01T04:21:43;0.95;;;0.65;;
44981;SDS011;30716;41.740;-70.400;2022-07-01T04:24:28;1.00;;;0.65;;
44981;SDS011;30716;41.740;-70.400;2022-07-01T04:26:57;0.95;;;0.70;;
44981;SDS011;30716;41.740;-70.400;2022-07-01T04:29:25;0.95;;;0.75;;
44981;SDS011;30716;41.740;-70.400;2022-07-01T04:31:52;1.98;;;0.60;;
44981;SDS011;30716;41.740;-70.400;2022-07-01T04:34:18;1.15;;;0.75;;
44981;SDS011;30716;41.740;-70.400;2022-07-01T04:36:44;0.55;;;0.38;;
44981;SDS011;30716;41.740;-70.400;2022-07-01T04:39:10;1.42;;;0.80;;
44981;SDS011;30716;41.740;-70.400;2022-07-01T04:41:36;0.52;;;0.40;;
44981;SDS011;30716;41.740;-70.400;2022-07-01T04:44:21;0.70;;;0.50;;
44981;SDS011;30716;41.740;-70.400;2022-07-01T04:46:47;1.30;;;0.75;;
44981;SDS011;30716;41.740;-70.400;2022-07-01T04:49:13;1.27;;;0.63;;
44981;SDS011;30716;41.740;-70.400;2022-07-01T04:51:40;1.08;;;0.65;;
44981;SDS011;30716;41.740;-70.400;2022-07-01T04:54:06;0.80;;;0.70;;
44981;SDS011;30716;41.740;-70.400;2022-07-01T04:56:34;1.02;;;0.57;;
44981;SDS011;30716;41.740;-70.400;2022-07-01T04:59:01;0.70;;;0.60;;
44981;SDS011;30716;41.740;-70.400;2022-07-01T05:01:28;0.85;;;0.50;;
44981;SDS011;30716;41.740;-70.400;2022-07-01T05:03:57;1.63;;;0.70;;
44981;SDS011;30716;41.740;-70.400;2022-07-01T05:06:24;0.95;;;0.63;;
44981;SDS011;30716;41.740;-70.400;2022-07-01T05:08:50;1.10;;;0.65;;
44981;SDS011;30716;41.740;-70.400;2022-07-01T05:11:16;1.58;;;0.82;;
44981;SDS011;30716;41.740;-70.400;2022-07-01T05:13:42;1.27;;;0.65;;
44981;SDS011;30716;41.740;-70.400;2022-07-01T05:16:08;0.80;;;0.55;;
44981;SDS011;30716;41.740;-70.400;2022-07-01T05:18:35;1.42;;;1.00;;
44981;SDS011;30716;41.740;-70.400;2022-07-01T05:21:20;1.15;;;0.80;;
44981;SDS011;30716;41.740;-70.400;2022-07-01T05:24:05;0.65;;;0.45;;
44981;SDS011;30716;41.740;-70.400;2022-07-01T05:26:32;1.08;;;0.80;;
44981;SDS011;30716;41.740;-70.400;2022-07-01T05:28:58;1.58;;;0.70;;
44981;SDS011;30716;41.740;-70.400;2022-07-01T05:31:24;1.13;;;0.73;;
44981;SDS011;30716;41.740;-70.400;2022-07-01T05:33:52;1.55;;;0.68;;
44981;SDS011;30716;41.740;-70.400;2022-07-01T05:36:18;0.60;;;0.52;;
44981;SDS011;30716;41.740;-70.400;2022-07-01T05:38:44;1.10;;;0.60;;
44981;SDS011;30716;41.740;-70.400;2022-07-01T05:41:10;0.95;;;0.65;;
44981;SDS011;30716;41.740;-70.400;2022-07-01T05:43:36;1.00;;;0.60;;
44981;SDS011;30716;41.740;-70.400;2022-07-01T05:46:02;1.15;;;0.70;;
44981;SDS011;30716;41.740;-70.400;2022-07-01T05:48:28;0.52;;;0.50;;
44981;SDS011;30716;41.740;-70.400;2022-07-01T05:50:54;1.52;;;0.85;;
44981;SDS011;30716;41.740;-70.400;2022-07-01T05:53:21;1.05;;;0.80;;
44981;SDS011;30716;41.740;-70.400;2022-07-01T05:55:47;0.80;;;0.55;;
44981;SDS011;30716;41.740;-70.400;2022-07-01T05:58:14;0.80;;;0.57;;
44981;SDS011;30716;41.740;-70.400;2022-07-01T06:00:40;1.67;;;1.00;;
44981;SDS011;30716;41.740;-70.400;2022-07-01T06:03:08;0.73;;;0.35;;
44981;SDS011;30716;41.740;-70.400;2022-07-01T06:05:35;1.02;;;0.70;;
44981;SDS011;30716;41.740;-70.400;2022-07-01T06:08:02;0.73;;;0.50;;
44981;SDS011;30716;41.740;-70.400;2022-07-01T06:10:29;1.17;;;0.90;;
44981;SDS011;30716;41.740;-70.400;2022-07-01T06:12:55;0.70;;;0.50;;
44981;SDS011;30716;41.740;-70.400;2022-07-01T06:15:22;1.05;;;0.63;;
44981;SDS011;30716;41.740;-70.400;2022-07-01T06:17:48;0.63;;;0.52;;
44981;SDS011;30716;41.740;-70.400;2022-07-01T06:20:15;1.13;;;0.70;;
44981;SDS011;30716;41.740;-70.400;2022-07-01T06:22:41;0.80;;;0.60;;
44981;SDS011;30716;41.740;-70.400;2022-07-01T06:25:08;0.70;;;0.50;;
44981;SDS011;30716;41.740;-70.400;2022-07-01T06:27:38;1.15;;;0.65;;
44981;SDS011;30716;41.740;-70.400;2022-07-01T06:30:05;0.90;;;0.50;;
44981;SDS011;30716;41.740;-70.400;2022-07-01T06:32:31;0.73;;;0.47;;
44981;SDS011;30716;41.740;-70.400;2022-07-01T06:34:58;1.48;;;0.85;;
44981;SDS011;30716;41.740;-70.400;2022-07-01T06:37:24;1.13;;;0.60;;
44981;SDS011;30716;41.740;-70.400;2022-07-01T06:39:50;0.73;;;0.50;;
44981;SDS011;30716;41.740;-70.400;2022-07-01T06:42:16;0.95;;;0.55;;
44981;SDS011;30716;41.740;-70.400;2022-07-01T06:44:42;1.05;;;0.82;;
44981;SDS011;30716;41.740;-70.400;2022-07-01T06:47:08;1.02;;;0.63;;
44981;SDS011;30716;41.740;-70.400;2022-07-01T06:49:34;0.98;;;0.70;;
44981;SDS011;30716;41.740;-70.400;2022-07-01T06:52:01;0.90;;;0.50;;
44981;SDS011;30716;41.740;-70.400;2022-07-01T06:54:27;1.38;;;0.82;;
44981;SDS011;30716;41.740;-70.400;2022-07-01T06:56:53;0.93;;;0.70;;
44981;SDS011;30716;41.740;-70.400;2022-07-01T06:59:20;1.13;;;0.68;;
44981;SDS011;30716;41.740;-70.400;2022-07-01T07:01:46;0.98;;;0.60;;
44981;SDS011;30716;41.740;-70.400;2022-07-01T07:04:14;1.17;;;0.73;;
44981;SDS011;30716;41.740;-70.400;2022-07-01T07:06:41;1.55;;;0.77;;
44981;SDS011;30716;41.740;-70.400;2022-07-01T07:09:08;2.40;;;0.60;;
44981;SDS011;30716;41.740;-70.400;2022-07-01T07:11:34;0.93;;;0.68;;
44981;SDS011;30716;41.740;-70.400;2022-07-01T07:14:00;1.02;;;0.70;;
44981;SDS011;30716;41.740;-70.400;2022-07-01T07:16:26;1.08;;;0.57;;
44981;SDS011;30716;41.740;-70.400;2022-07-01T07:18:52;0.95;;;0.60;;
44981;SDS011;30716;41.740;-70.400;2022-07-01T07:21:18;1.02;;;0.60;;
44981;SDS011;30716;41.740;-70.400;2022-07-01T07:23:45;1.30;;;0.60;;
44981;SDS011;30716;41.740;-70.400;2022-07-01T07:26:11;0.95;;;0.70;;
44981;SDS011;30716;41.740;-70.400;2022-07-01T07:28:37;0.93;;;0.70;;
44981;SDS011;30716;41.740;-70.400;2022-07-01T07:31:03;1.02;;;0.68;;
44981;SDS011;30716;41.740;-70.400;2022-07-01T07:33:29;0.90;;;0.75;;
44981;SDS011;30716;41.740;-70.400;2022-07-01T07:35:55;1.13;;;0.75;;
44981;SDS011;30716;41.740;-70.400;2022-07-01T07:38:22;0.73;;;0.52;;
44981;SDS011;30716;41.740;-70.400;2022-07-01T07:40:48;0.95;;;0.65;;
44981;SDS011;30716;41.740;-70.400;2022-07-01T07:43:14;1.42;;;0.70;;
44981;SDS011;30716;41.740;-70.400;2022-07-01T07:45:40;1.15;;;0.60;;
44981;SDS011;30716;41.740;-70.400;2022-07-01T07:48:06;1.52;;;1.00;;
44981;SDS011;30716;41.740;-70.400;2022-07-01T07:50:34;1.00;;;0.57;;
44981;SDS011;30716;41.740;-70.400;2022-07-01T07:53:00;0.50;;;0.50;;
44981;SDS011;30716;41.740;-70.400;2022-07-01T07:55:27;0.95;;;0.65;;
44981;SDS011;30716;41.740;-70.400;2022-07-01T07:57:53;0.75;;;0.52;;
44981;SDS011;30716;41.740;-70.400;2022-07-01T08:00:19;1.08;;;0.70;;
44981;SDS011;30716;41.740;-70.400;2022-07-01T08:02:46;1.48;;;0.85;;
44981;SDS011;30716;41.740;-70.400;2022-07-01T08:05:12;0.80;;;0.60;;
44981;SDS011;30716;41.740;-70.400;2022-07-01T08:07:39;0.85;;;0.60;;
44981;SDS011;30716;41.740;-70.400;2022-07-01T08:10:07;0.60;;;0.60;;
44981;SDS011;30716;41.740;-70.400;2022-07-01T08:12:35;1.67;;;0.90;;
44981;SDS011;30716;41.740;-70.400;2022-07-01T08:15:02;1.08;;;0.60;;
44981;SDS011;30716;41.740;-70.400;2022-07-01T08:17:28;1.02;;;0.60;;
44981;SDS011;30716;41.740;-70.400;2022-07-01T08:19:55;0.90;;;0.50;;
44981;SDS011;30716;41.740;-70.400;2022-07-01T08:22:21;1.38;;;0.60;;
44981;SDS011;30716;41.740;-70.400;2022-07-01T08:24:47;1.05;;;0.80;;
44981;SDS011;30716;41.740;-70.400;2022-07-01T08:27:13;3.00;;;0.75;;
44981;SDS011;30716;41.740;-70.400;2022-07-01T08:29:40;0.88;;;0.60;;
44981;SDS011;30716;41.740;-70.400;2022-07-01T08:32:06;0.98;;;0.60;;
44981;SDS011;30716;41.740;-70.400;2022-07-01T08:34:32;0.50;;;0.50;;
44981;SDS011;30716;41.740;-70.400;2022-07-01T08:37:01;1.30;;;0.70;;
44981;SDS011;30716;41.740;-70.400;2022-07-01T08:39:28;1.05;;;0.63;;
44981;SDS011;30716;41.740;-70.400;2022-07-01T08:41:55;1.30;;;0.85;;
44981;SDS011;30716;41.740;-70.400;2022-07-01T08:44:22;1.05;;;0.60;;
44981;SDS011;30716;41.740;-70.400;2022-07-01T08:46:48;0.80;;;0.45;;
44981;SDS011;30716;41.740;-70.400;2022-07-01T08:49:15;0.95;;;0.60;;
44981;SDS011;30716;41.740;-70.400;2022-07-01T08:51:42;1.05;;;0.52;;
44981;SDS011;30716;41.740;-70.400;2022-07-01T08:54:08;1.25;;;0.65;;
44981;SDS011;30716;41.740;-70.400;2022-07-01T08:56:34;0.85;;;0.68;;
44981;SDS011;30716;41.740;-70.400;2022-07-01T08:59:06;1.02;;;0.73;;
44981;SDS011;30716;41.740;-70.400;2022-07-01T09:01:53;1.10;;;0.60;;
44981;SDS011;30716;41.740;-70.400;2022-07-01T09:04:24;0.77;;;0.55;;
44981;SDS011;30716;41.740;-70.400;2022-07-01T09:06:50;0.93;;;0.57;;
44981;SDS011;30716;41.740;-70.400;2022-07-01T09:09:18;1.02;;;0.65;;
44981;SDS011;30716;41.740;-70.400;2022-07-01T09:16:51;0.65;;;0.47;;
44981;SDS011;30716;41.740;-70.400;2022-07-01T09:19:18;1.10;;;0.70;;
44981;SDS011;30716;41.740;-70.400;2022-07-01T09:21:49;0.80;;;0.52;;
44981;SDS011;30716;41.740;-70.400;2022-07-01T09:24:22;0.88;;;0.57;;
44981;SDS011;30716;41.740;-70.400;2022-07-01T09:27:05;0.98;;;0.77;;
44981;SDS011;30716;41.740;-70.400;2022-07-01T09:29:42;1.63;;;0.80;;
44981;SDS011;30716;41.740;-70.400;2022-07-01T09:32:12;0.90;;;0.55;;
44981;SDS011;30716;41.740;-70.400;2022-07-01T09:34:40;0.68;;;0.60;;
44981;SDS011;30716;41.740;-70.400;2022-07-01T09:37:07;1.15;;;0.75;;
44981;SDS011;30716;41.740;-70.400;2022-07-01T09:39:44;0.65;;;0.50;;
44981;SDS011;30716;41.740;-70.400;2022-07-01T09:42:15;0.98;;;0.55;;
44981;SDS011;30716;41.740;-70.400;2022-07-01T09:44:56;0.55;;;0.47;;
44981;SDS011;30716;41.740;-70.400;2022-07-01T09:47:36;1.10;;;0.70;;
44981;SDS011;30716;41.740;-70.400;2022-07-01T09:50:05;0.52;;;0.50;;
44981;SDS011;30716;41.740;-70.400;2022-07-01T09:52:32;0.75;;;0.60;;
44981;SDS011;30716;41.740;-70.400;2022-07-01T09:54:59;1.17;;;0.60;;
44981;SDS011;30716;41.740;-70.400;2022-07-01T09:57:26;1.35;;;0.73;;
44981;SDS011;30716;41.740;-70.400;2022-07-01T09:59:52;0.73;;;0.52;;
44981;SDS011;30716;41.740;-70.400;2022-07-01T10:02:19;0.57;;;0.45;;
44981;SDS011;30716;41.740;-70.400;2022-07-01T10:04:48;1.65;;;1.10;;
44981;SDS011;30716;41.740;-70.400;2022-07-01T10:12:38;1.17;;;0.77;;
44981;SDS011;30716;41.740;-70.400;2022-07-01T10:15:08;1.02;;;0.68;;
44981;SDS011;30716;41.740;-70.400;2022-07-01T10:17:40;1.10;;;0.80;;
44981;SDS011;30716;41.740;-70.400;2022-07-01T10:20:11;0.68;;;0.52;;
44981;SDS011;30716;41.740;-70.400;2022-07-01T10:22:39;0.82;;;0.68;;
44981;SDS011;30716;41.740;-70.400;2022-07-01T10:28:14;0.93;;;0.40;;
44981;SDS011;30716;41.740;-70.400;2022-07-01T10:31:00;1.05;;;0.60;;
44981;SDS011;30716;41.740;-70.400;2022-07-01T10:33:35;1.10;;;0.70;;
44981;SDS011;30716;41.740;-70.400;2022-07-01T10:36:06;0.90;;;0.52;;
44981;SDS011;30716;41.740;-70.400;2022-07-01T10:41:32;0.88;;;0.55;;
44981;SDS011;30716;41.740;-70.400;2022-07-01T10:44:10;0.88;;;0.60;;
44981;SDS011;30716;41.740;-70.400;2022-07-01T10:49:13;1.27;;;0.93;;
44981;SDS011;30716;41.740;-70.400;2022-07-01T10:51:54;1.55;;;1.00;;
44981;SDS011;30716;41.740;-70.400;2022-07-01T11:04:52;1.20;;;0.80;;
44981;SDS011;30716;41.740;-70.400;2022-07-01T11:07:30;2.72;;;1.27;;
44981;SDS011;30716;41.740;-70.400;2022-07-01T11:09:58;1.50;;;1.20;;
44981;SDS011;30716;41.740;-70.400;2022-07-01T11:12:27;1.85;;;1.30;;
44981;SDS011;30716;41.740;-70.400;2022-07-01T11:14:55;1.40;;;1.08;;
44981;SDS011;30716;41.740;-70.400;2022-07-01T11:17:24;1.60;;;1.00;;
44981;SDS011;30716;41.740;-70.400;2022-07-01T11:19:51;1.95;;;1.08;;
44981;SDS011;30716;41.740;-70.400;2022-07-01T11:22:20;1.35;;;1.10;;
44981;SDS011;30716;41.740;-70.400;2022-07-01T11:24:51;1.38;;;1.20;;
44981;SDS011;30716;41.740;-70.400;2022-07-01T11:27:18;1.30;;;1.02;;
44981;SDS011;30716;41.740;-70.400;2022-07-01T11:29:50;2.30;;;1.30;;
44981;SDS011;30716;41.740;-70.400;2022-07-01T11:32:27;1.85;;;1.15;;
44981;SDS011;30716;41.740;-70.400;2022-07-01T11:34:55;2.60;;;1.10;;
44981;SDS011;30716;41.740;-70.400;2022-07-01T11:37:22;1.75;;;1.40;;
44981;SDS011;30716;41.740;-70.400;2022-07-01T11:40:14;1.65;;;1.15;;
44981;SDS011;30716;41.740;-70.400;2022-07-01T11:42:42;1.45;;;1.05;;
44981;SDS011;30716;41.740;-70.400;2022-07-01T11:45:21;2.03;;;1.27;;
44981;SDS011;30716;41.740;-70.400;2022-07-01T11:47:49;2.03;;;1.42;;
44981;SDS011;30716;41.740;-70.400;2022-07-01T11:50:15;1.65;;;1.02;;
44981;SDS011;30716;41.740;-70.400;2022-07-01T11:52:42;2.22;;;1.30;;
44981;SDS011;30716;41.740;-70.400;2022-07-01T11:55:08;1.33;;;1.00;;
44981;SDS011;30716;41.740;-70.400;2022-07-01T11:57:34;1.20;;;0.95;;
44981;SDS011;30716;41.740;-70.400;2022-07-01T12:00:10;1.40;;;1.13;;
44981;SDS011;30716;41.740;-70.400;2022-07-01T12:02:37;1.88;;;1.30;;
44981;SDS011;30716;41.740;-70.400;2022-07-01T12:05:04;1.80;;;1.30;;
44981;SDS011;30716;41.740;-70.400;2022-07-01T12:07:31;2.15;;;1.40;;
44981;SDS011;30716;41.740;-70.400;2022-07-01T12:09:58;2.95;;;1.30;;
44981;SDS011;30716;41.740;-70.400;2022-07-01T12:12:26;2.08;;;1.50;;
44981;SDS011;30716;41.740;-70.400;2022-07-01T12:14:56;1.65;;;1.35;;
44981;SDS011;30716;41.740;-70.400;2022-07-01T12:17:24;2.17;;;1.30;;
44981;SDS011;30716;41.740;-70.400;2022-07-01T12:19:52;2.15;;;1.33;;
44981;SDS011;30716;41.740;-70.400;2022-07-01T12:22:20;2.40;;;1.30;;
44981;SDS011;30716;41.740;-70.400;2022-07-01T12:24:52;2.97;;;1.52;;
44981;SDS011;30716;41.740;-70.400;2022-07-01T12:27:29;2.03;;;1.20;;
44981;SDS011;30716;41.740;-70.400;2022-07-01T12:29:59;1.83;;;1.45;;
44981;SDS011;30716;41.740;-70.400;2022-07-01T12:32:26;2.63;;;1.92;;
44981;SDS011;30716;41.740;-70.400;2022-07-01T12:34:57;1.95;;;1.30;;
44981;SDS011;30716;41.740;-70.400;2022-07-01T12:37:26;1.98;;;1.10;;
44981;SDS011;30716;41.740;-70.400;2022-07-01T12:39:58;2.90;;;2.10;;
44981;SDS011;30716;41.740;-70.400;2022-07-01T12:42:30;2.55;;;2.10;;
44981;SDS011;30716;41.740;-70.400;2022-07-01T12:44:59;1.98;;;1.45;;
44981;SDS011;30716;41.740;-70.400;2022-07-01T12:47:28;1.52;;;1.27;;
44981;SDS011;30716;41.740;-70.400;2022-07-01T12:55:23;2.65;;;1.58;;
44981;SDS011;30716;41.740;-70.400;2022-07-01T12:57:50;2.25;;;1.42;;
44981;SDS011;30716;41.740;-70.400;2022-07-01T13:00:18;1.75;;;1.50;;
44981;SDS011;30716;41.740;-70.400;2022-07-01T13:02:45;2.65;;;1.85;;
44981;SDS011;30716;41.740;-70.400;2022-07-01T13:05:12;2.08;;;1.70;;
44981;SDS011;30716;41.740;-70.400;2022-07-01T13:07:39;2.15;;;1.30;;
44981;SDS011;30716;41.740;-70.400;2022-07-01T13:10:05;2.58;;;1.60;;
44981;SDS011;30716;41.740;-70.400;2022-07-01T13:12:31;2.47;;;1.58;;
44981;SDS011;30716;41.740;-70.400;2022-07-01T13:14:58;1.83;;;1.52;;
44981;SDS011;30716;41.740;-70.400;2022-07-01T13:17:24;1.73;;;1.40;;
44981;SDS011;30716;41.740;-70.400;2022-07-01T13:19:51;1.85;;;1.60;;
44981;SDS011;30716;41.740;-70.400;2022-07-01T13:22:17;2.00;;;1.42;;
44981;SDS011;30716;41.740;-70.400;2022-07-01T13:24:44;2.30;;;1.48;;
44981;SDS011;30716;41.740;-70.400;2022-07-01T13:27:10;2.28;;;1.70;;
44981;SDS011;30716;41.740;-70.400;2022-07-01T13:29:36;1.92;;;1.42;;
44981;SDS011;30716;41.740;-70.400;2022-07-01T13:32:03;2.28;;;1.55;;
44981;SDS011;30716;41.740;-70.400;2022-07-01T13:34:30;2.47;;;1.85;;
44981;SDS011;30716;41.740;-70.400;2022-07-01T13:36:58;2.22;;;1.80;;
44981;SDS011;30716;41.740;-70.400;2022-07-01T13:39:24;3.20;;;1.60;;
44981;SDS011;30716;41.740;-70.400;2022-07-01T13:41:50;2.55;;;2.00;;
44981;SDS011;30716;41.740;-70.400;2022-07-01T13:44:16;2.03;;;1.58;;
44981;SDS011;30716;41.740;-70.400;2022-07-01T13:46:42;2.55;;;1.80;;
44981;SDS011;30716;41.740;-70.400;2022-07-01T13:49:08;2.75;;;1.92;;
44981;SDS011;30716;41.740;-70.400;2022-07-01T13:51:35;2.70;;;1.88;;
44981;SDS011;30716;41.740;-70.400;2022-07-01T13:54:01;2.47;;;1.70;;
44981;SDS011;30716;41.740;-70.400;2022-07-01T13:56:27;2.47;;;1.90;;
44981;SDS011;30716;41.740;-70.400;2022-07-01T13:58:53;2.95;;;2.15;;
44981;SDS011;30716;41.740;-70.400;2022-07-01T14:01:20;2.70;;;2.05;;
44981;SDS011;30716;41.740;-70.400;2022-07-01T14:03:49;2.15;;;1.70;;
44981;SDS011;30716;41.740;-70.400;2022-07-01T14:06:16;2.75;;;2.15;;
44981;SDS011;30716;41.740;-70.400;2022-07-01T14:08:43;2.75;;;1.98;;
44981;SDS011;30716;41.740;-70.400;2022-07-01T14:11:10;2.67;;;2.00;;
44981;SDS011;30716;41.740;-70.400;2022-07-01T14:13:36;2.42;;;2.10;;
44981;SDS011;30716;41.740;-70.400;2022-07-01T14:16:03;2.72;;;2.13;;
44981;SDS011;30716;41.740;-70.400;2022-07-01T14:18:32;2.75;;;2.20;;
44981;SDS011;30716;41.740;-70.400;2022-07-01T14:21:00;2.75;;;1.98;;
44981;SDS011;30716;41.740;-70.400;2022-07-01T14:23:26;2.50;;;1.85;;
44981;SDS011;30716;41.740;-70.400;2022-07-01T14:25:52;2.40;;;1.85;;
44981;SDS011;30716;41.740;-70.400;2022-07-01T14:28:18;2.83;;;2.00;;
44981;SDS011;30716;41.740;-70.400;2022-07-01T14:30:45;3.95;;;2.45;;
44981;SDS011;30716;41.740;-70.400;2022-07-01T14:33:11;2.67;;;1.92;;
44981;SDS011;30716;41.740;-70.400;2022-07-01T14:35:38;2.75;;;2.22;;
44981;SDS011;30716;41.740;-70.400;2022-07-01T14:38:04;2.38;;;1.98;;
44981;SDS011;30716;41.740;-70.400;2022-07-01T14:40:31;3.05;;;2.17;;
44981;SDS011;30716;41.740;-70.400;2022-07-01T14:42:58;3.20;;;2.50;;
44981;SDS011;30716;41.740;-70.400;2022-07-01T14:45:24;2.80;;;2.17;;
44981;SDS011;30716;41.740;-70.400;2022-07-01T14:47:50;2.45;;;1.80;;
44981;SDS011;30716;41.740;-70.400;2022-07-01T14:50:17;3.10;;;1.92;;
44981;SDS011;30716;41.740;-70.400;2022-07-01T14:52:43;3.20;;;2.22;;
44981;SDS011;30716;41.740;-70.400;2022-07-01T14:55:09;2.78;;;2.03;;
44981;SDS011;30716;41.740;-70.400;2022-07-01T14:57:35;2.63;;;1.90;;
44981;SDS011;30716;41.740;-70.400;2022-07-01T15:00:05;2.63;;;2.10;;
44981;SDS011;30716;41.740;-70.400;2022-07-01T15:02:32;2.97;;;2.30;;